To NAV CANADA Home Page Login to a new session Search on AWWS site Feedback and Comments Disclaimer Vers la page française équivalente Tips FAQ What's new on the site To the Forecasts and Observations / NOTAM section To "File a Flight Plan" website Publications and other links Update of the User's profile FIC Telephone Numbers My Weather Data Folder Route Weather Data Regional Weather Data Local Weather Data To the Forecasts and Observations / NOTAM section
Request Generated 08/22/2017 at 01:43:58 UTC . Weather information available at that time is displayed.

METAR/TAF

ROBERVAL/QC    

METAR CYRJ 220100Z 25004KT 25SM FEW090 18/17 A2992 RMK AC1 SLP134
DENSITY ALT 1100FT=
METAR CYRJ 220000Z 27006KT 25SM BKN082 BKN220 19/18 A2990 RMK AC7CI1
CI TR SLP128 DENSITY ALT 1300FT=
SPECI CYRJ 212331Z 29007KT 20SM BKN064 BKN220 19/17 A2989 RMK SC7CI1
CI TR SLP124 DENSITY ALT 1300FT=
METAR CYRJ 212300Z 29011G17KT 12SM -SHRA FEW025 BKN072 BKN220 19/17
A2988 RMK CU1AC7CI1 CU TR CI TR CVCTV CLD EMBD SLP121 DENSITY ALT
1300FT=

TAF AMD CYRJ 220006Z 2200/2202 27006KT P6SM BKN080
FM220100 29008KT P6SM FEW080
RMK NXT FCST WILL BE ISSUED AT 221145Z=
Your time UTC time
Weather data provided by Environment Canada and NAV CANADA